sensor_id;sensor_type;location;lat;lon;timestamp;P1;durP1;ratioP1;P2;durP2;ratioP2
61911;SDS011;49973;52.084;5.412;2024-02-21T00:02:02;1.93;;;1.60;;
61911;SDS011;49973;52.084;5.412;2024-02-21T00:04:31;6.83;;;1.53;;
61911;SDS011;49973;52.084;5.412;2024-02-21T00:07:00;2.33;;;2.13;;
61911;SDS011;49973;52.084;5.412;2024-02-21T00:09:28;2.63;;;1.90;;
61911;SDS011;49973;52.084;5.412;2024-02-21T00:11:57;3.87;;;1.80;;
61911;SDS011;49973;52.084;5.412;2024-02-21T00:14:26;1.80;;;1.37;;
61911;SDS011;49973;52.084;5.412;2024-02-21T00:16:56;2.23;;;1.47;;
61911;SDS011;49973;52.084;5.412;2024-02-21T00:19:25;5.80;;;2.10;;
61911;SDS011;49973;52.084;5.412;2024-02-21T00:21:54;2.60;;;1.67;;
61911;SDS011;49973;52.084;5.412;2024-02-21T00:24:22;4.70;;;1.53;;
61911;SDS011;49973;52.084;5.412;2024-02-21T00:26:51;1.70;;;1.40;;
61911;SDS011;49973;52.084;5.412;2024-02-21T00:29:21;4.20;;;1.53;;
61911;SDS011;49973;52.084;5.412;2024-02-21T00:31:50;2.40;;;1.43;;
61911;SDS011;49973;52.084;5.412;2024-02-21T00:34:20;1.77;;;1.37;;
61911;SDS011;49973;52.084;5.412;2024-02-21T00:36:49;3.03;;;1.20;;
61911;SDS011;49973;52.084;5.412;2024-02-21T00:39:17;1.83;;;1.73;;
61911;SDS011;49973;52.084;5.412;2024-02-21T00:41:46;2.53;;;1.73;;
61911;SDS011;49973;52.084;5.412;2024-02-21T00:44:15;6.50;;;1.60;;
61911;SDS011;49973;52.084;5.412;2024-02-21T00:46:43;2.53;;;1.67;;
61911;SDS011;49973;52.084;5.412;2024-02-21T00:49:13;9.43;;;1.73;;
61911;SDS011;49973;52.084;5.412;2024-02-21T00:51:43;9.20;;;1.63;;
61911;SDS011;49973;52.084;5.412;2024-02-21T00:54:12;3.63;;;1.53;;
61911;SDS011;49973;52.084;5.412;2024-02-21T00:56:40;1.33;;;1.13;;
61911;SDS011;49973;52.084;5.412;2024-02-21T00:59:09;9.23;;;1.90;;
61911;SDS011;49973;52.084;5.412;2024-02-21T01:01:38;1.33;;;1.23;;
61911;SDS011;49973;52.084;5.412;2024-02-21T01:04:09;4.87;;;2.17;;
61911;SDS011;49973;52.084;5.412;2024-02-21T01:06:38;13.10;;;2.00;;
61911;SDS011;49973;52.084;5.412;2024-02-21T01:09:11;2.80;;;1.87;;
61911;SDS011;49973;52.084;5.412;2024-02-21T01:11:39;1.43;;;1.07;;
61911;SDS011;49973;52.084;5.412;2024-02-21T01:14:08;2.10;;;1.30;;
61911;SDS011;49973;52.084;5.412;2024-02-21T01:16:37;1.93;;;1.40;;
61911;SDS011;49973;52.084;5.412;2024-02-21T01:19:06;1.63;;;1.37;;
61911;SDS011;49973;52.084;5.412;2024-02-21T01:21:35;3.87;;;1.53;;
61911;SDS011;49973;52.084;5.412;2024-02-21T01:24:03;8.40;;;1.53;;
61911;SDS011;49973;52.084;5.412;2024-02-21T01:26:34;5.10;;;1.47;;
61911;SDS011;49973;52.084;5.412;2024-02-21T01:29:02;2.23;;;1.57;;
61911;SDS011;49973;52.084;5.412;2024-02-21T01:31:31;5.67;;;1.77;;
61911;SDS011;49973;52.084;5.412;2024-02-21T01:34:00;3.47;;;1.60;;
61911;SDS011;49973;52.084;5.412;2024-02-21T01:36:28;2.00;;;1.73;;
61911;SDS011;49973;52.084;5.412;2024-02-21T01:38:57;2.67;;;2.03;;
61911;SDS011;49973;52.084;5.412;2024-02-21T01:41:25;2.27;;;1.60;;
61911;SDS011;49973;52.084;5.412;2024-02-21T01:43:55;2.33;;;1.20;;
61911;SDS011;49973;52.084;5.412;2024-02-21T01:46:24;4.43;;;1.23;;
61911;SDS011;49973;52.084;5.412;2024-02-21T01:48:55;3.53;;;1.50;;
61911;SDS011;49973;52.084;5.412;2024-02-21T01:51:25;2.60;;;1.40;;
61911;SDS011;49973;52.084;5.412;2024-02-21T01:53:55;3.07;;;1.67;;
61911;SDS011;49973;52.084;5.412;2024-02-21T01:56:24;2.10;;;1.53;;
61911;SDS011;49973;52.084;5.412;2024-02-21T01:58:53;2.67;;;1.73;;
61911;SDS011;49973;52.084;5.412;2024-02-21T02:01:24;1.83;;;1.30;;
61911;SDS011;49973;52.084;5.412;2024-02-21T02:03:53;2.43;;;1.83;;
61911;SDS011;49973;52.084;5.412;2024-02-21T02:06:24;5.67;;;1.83;;
61911;SDS011;49973;52.084;5.412;2024-02-21T02:08:53;2.40;;;1.43;;
61911;SDS011;49973;52.084;5.412;2024-02-21T02:11:21;4.07;;;1.60;;
61911;SDS011;49973;52.084;5.412;2024-02-21T02:13:50;3.00;;;1.53;;
61911;SDS011;49973;52.084;5.412;2024-02-21T02:16:20;3.27;;;1.80;;
61911;SDS011;49973;52.084;5.412;2024-02-21T02:18:49;4.47;;;2.23;;
61911;SDS011;49973;52.084;5.412;2024-02-21T02:21:26;4.20;;;2.10;;
61911;SDS011;49973;52.084;5.412;2024-02-21T02:23:58;2.13;;;1.67;;
61911;SDS011;49973;52.084;5.412;2024-02-21T02:26:27;2.23;;;1.40;;
61911;SDS011;49973;52.084;5.412;2024-02-21T02:28:56;4.93;;;1.80;;
61911;SDS011;49973;52.084;5.412;2024-02-21T02:31:24;6.97;;;1.60;;
61911;SDS011;49973;52.084;5.412;2024-02-21T02:33:53;1.87;;;1.70;;
61911;SDS011;49973;52.084;5.412;2024-02-21T02:36:22;2.57;;;2.03;;
61911;SDS011;49973;52.084;5.412;2024-02-21T02:38:51;3.30;;;1.30;;
61911;SDS011;49973;52.084;5.412;2024-02-21T02:41:21;4.57;;;1.73;;
61911;SDS011;49973;52.084;5.412;2024-02-21T02:43:50;2.80;;;1.30;;
61911;SDS011;49973;52.084;5.412;2024-02-21T02:46:18;1.67;;;1.37;;
61911;SDS011;49973;52.084;5.412;2024-02-21T02:48:47;2.60;;;1.60;;
61911;SDS011;49973;52.084;5.412;2024-02-21T02:51:15;2.80;;;1.83;;
61911;SDS011;49973;52.084;5.412;2024-02-21T02:53:45;2.47;;;1.57;;
61911;SDS011;49973;52.084;5.412;2024-02-21T02:56:14;4.10;;;1.73;;
61911;SDS011;49973;52.084;5.412;2024-02-21T02:58:44;3.67;;;1.80;;
61911;SDS011;49973;52.084;5.412;2024-02-21T03:01:13;5.10;;;1.40;;
61911;SDS011;49973;52.084;5.412;2024-02-21T03:03:42;3.97;;;2.33;;
61911;SDS011;49973;52.084;5.412;2024-02-21T03:06:12;6.30;;;1.83;;
61911;SDS011;49973;52.084;5.412;2024-02-21T03:08:41;9.53;;;2.10;;
61911;SDS011;49973;52.084;5.412;2024-02-21T03:11:09;4.20;;;2.67;;
61911;SDS011;49973;52.084;5.412;2024-02-21T03:13:39;6.30;;;2.13;;
61911;SDS011;49973;52.084;5.412;2024-02-21T03:16:09;2.27;;;1.63;;
61911;SDS011;49973;52.084;5.412;2024-02-21T03:18:37;3.43;;;2.97;;
61911;SDS011;49973;52.084;5.412;2024-02-21T03:21:06;3.00;;;1.60;;
61911;SDS011;49973;52.084;5.412;2024-02-21T03:23:34;3.90;;;2.17;;
61911;SDS011;49973;52.084;5.412;2024-02-21T03:26:03;3.43;;;2.10;;
61911;SDS011;49973;52.084;5.412;2024-02-21T03:28:32;1.57;;;1.30;;
61911;SDS011;49973;52.084;5.412;2024-02-21T03:31:00;5.70;;;3.13;;
61911;SDS011;49973;52.084;5.412;2024-02-21T03:33:30;4.47;;;2.17;;
61911;SDS011;49973;52.084;5.412;2024-02-21T03:35:59;3.80;;;2.00;;
61911;SDS011;49973;52.084;5.412;2024-02-21T03:38:27;4.80;;;1.63;;
61911;SDS011;49973;52.084;5.412;2024-02-21T03:40:56;3.77;;;1.30;;
61911;SDS011;49973;52.084;5.412;2024-02-21T03:43:25;3.60;;;1.90;;
61911;SDS011;49973;52.084;5.412;2024-02-21T03:45:54;1.47;;;1.37;;
61911;SDS011;49973;52.084;5.412;2024-02-21T03:48:22;3.87;;;1.97;;
61911;SDS011;49973;52.084;5.412;2024-02-21T03:50:52;2.50;;;1.83;;
61911;SDS011;49973;52.084;5.412;2024-02-21T03:53:21;1.37;;;1.27;;
61911;SDS011;49973;52.084;5.412;2024-02-21T03:55:49;2.10;;;1.30;;
61911;SDS011;49973;52.084;5.412;2024-02-21T03:58:19;2.67;;;1.87;;
61911;SDS011;49973;52.084;5.412;2024-02-21T04:00:48;4.40;;;2.40;;
61911;SDS011;49973;52.084;5.412;2024-02-21T04:03:17;2.70;;;1.83;;
61911;SDS011;49973;52.084;5.412;2024-02-21T04:05:46;3.40;;;1.63;;
61911;SDS011;49973;52.084;5.412;2024-02-21T04:08:16;4.50;;;2.47;;
61911;SDS011;49973;52.084;5.412;2024-02-21T04:10:45;4.97;;;1.80;;
61911;SDS011;49973;52.084;5.412;2024-02-21T04:13:13;4.13;;;2.00;;
61911;SDS011;49973;52.084;5.412;2024-02-21T04:15:42;9.37;;;1.90;;
61911;SDS011;49973;52.084;5.412;2024-02-21T04:18:11;1.90;;;1.33;;
61911;SDS011;49973;52.084;5.412;2024-02-21T04:20:39;2.90;;;1.57;;
61911;SDS011;49973;52.084;5.412;2024-02-21T04:23:08;1.87;;;1.63;;
61911;SDS011;49973;52.084;5.412;2024-02-21T04:25:38;1.90;;;1.43;;
61911;SDS011;49973;52.084;5.412;2024-02-21T04:28:06;4.80;;;1.80;;
61911;SDS011;49973;52.084;5.412;2024-02-21T04:30:35;3.93;;;1.93;;
61911;SDS011;49973;52.084;5.412;2024-02-21T04:33:03;1.77;;;1.40;;
61911;SDS011;49973;52.084;5.412;2024-02-21T04:35:32;2.50;;;1.70;;
61911;SDS011;49973;52.084;5.412;2024-02-21T04:38:01;2.50;;;1.87;;
61911;SDS011;49973;52.084;5.412;2024-02-21T04:40:30;3.40;;;2.17;;
61911;SDS011;49973;52.084;5.412;2024-02-21T04:43:00;3.47;;;1.97;;
61911;SDS011;49973;52.084;5.412;2024-02-21T04:45:29;2.20;;;1.47;;
61911;SDS011;49973;52.084;5.412;2024-02-21T04:47:58;2.57;;;1.53;;
61911;SDS011;49973;52.084;5.412;2024-02-21T04:50:26;9.07;;;2.00;;
61911;SDS011;49973;52.084;5.412;2024-02-21T04:52:55;2.60;;;1.97;;
61911;SDS011;49973;52.084;5.412;2024-02-21T04:55:24;5.13;;;2.03;;
61911;SDS011;49973;52.084;5.412;2024-02-21T04:57:53;2.90;;;1.93;;
61911;SDS011;49973;52.084;5.412;2024-02-21T05:00:23;3.90;;;2.00;;
61911;SDS011;49973;52.084;5.412;2024-02-21T05:02:52;2.77;;;1.23;;
61911;SDS011;49973;52.084;5.412;2024-02-21T05:05:20;1.67;;;1.53;;
61911;SDS011;49973;52.084;5.412;2024-02-21T05:07:49;4.90;;;1.80;;
61911;SDS011;49973;52.084;5.412;2024-02-21T05:10:17;6.10;;;2.17;;
61911;SDS011;49973;52.084;5.412;2024-02-21T05:12:47;2.93;;;1.63;;
61911;SDS011;49973;52.084;5.412;2024-02-21T05:15:16;3.23;;;2.37;;
61911;SDS011;49973;52.084;5.412;2024-02-21T05:17:46;2.37;;;1.90;;
61911;SDS011;49973;52.084;5.412;2024-02-21T05:20:15;4.50;;;2.47;;
61911;SDS011;49973;52.084;5.412;2024-02-21T05:22:44;2.80;;;2.23;;
61911;SDS011;49973;52.084;5.412;2024-02-21T05:25:12;2.27;;;1.97;;
61911;SDS011;49973;52.084;5.412;2024-02-21T05:27:41;2.60;;;1.87;;
61911;SDS011;49973;52.084;5.412;2024-02-21T05:30:11;2.63;;;1.47;;
61911;SDS011;49973;52.084;5.412;2024-02-21T05:32:40;3.93;;;2.30;;
61911;SDS011;49973;52.084;5.412;2024-02-21T05:35:10;2.47;;;2.00;;
61911;SDS011;49973;52.084;5.412;2024-02-21T05:37:38;8.30;;;2.60;;
61911;SDS011;49973;52.084;5.412;2024-02-21T05:40:07;3.27;;;2.63;;
61911;SDS011;49973;52.084;5.412;2024-02-21T05:42:39;5.23;;;2.00;;
61911;SDS011;49973;52.084;5.412;2024-02-21T05:45:08;2.83;;;2.10;;
61911;SDS011;49973;52.084;5.412;2024-02-21T05:47:37;2.90;;;2.57;;
61911;SDS011;49973;52.084;5.412;2024-02-21T05:50:05;2.60;;;1.77;;
61911;SDS011;49973;52.084;5.412;2024-02-21T05:52:37;7.77;;;2.27;;
61911;SDS011;49973;52.084;5.412;2024-02-21T05:55:07;4.70;;;2.27;;
61911;SDS011;49973;52.084;5.412;2024-02-21T05:57:36;4.37;;;2.70;;
61911;SDS011;49973;52.084;5.412;2024-02-21T06:00:05;5.33;;;2.57;;
61911;SDS011;49973;52.084;5.412;2024-02-21T06:02:40;3.30;;;1.93;;
61911;SDS011;49973;52.084;5.412;2024-02-21T06:05:09;2.40;;;2.20;;
61911;SDS011;49973;52.084;5.412;2024-02-21T06:07:39;6.40;;;3.30;;
61911;SDS011;49973;52.084;5.412;2024-02-21T06:10:08;2.73;;;2.10;;
61911;SDS011;49973;52.084;5.412;2024-02-21T06:12:36;3.83;;;2.47;;
61911;SDS011;49973;52.084;5.412;2024-02-21T06:15:05;5.00;;;2.63;;
61911;SDS011;49973;52.084;5.412;2024-02-21T06:17:34;3.80;;;2.80;;
61911;SDS011;49973;52.084;5.412;2024-02-21T06:20:03;7.10;;;2.83;;
61911;SDS011;49973;52.084;5.412;2024-02-21T06:22:33;4.43;;;3.00;;
61911;SDS011;49973;52.084;5.412;2024-02-21T06:25:03;2.63;;;2.13;;
61911;SDS011;49973;52.084;5.412;2024-02-21T06:27:32;7.97;;;3.70;;
61911;SDS011;49973;52.084;5.412;2024-02-21T06:30:01;7.00;;;3.13;;
61911;SDS011;49973;52.084;5.412;2024-02-21T06:32:30;11.40;;;4.10;;
61911;SDS011;49973;52.084;5.412;2024-02-21T06:34:58;8.07;;;3.33;;
61911;SDS011;49973;52.084;5.412;2024-02-21T06:37:28;10.07;;;3.37;;
61911;SDS011;49973;52.084;5.412;2024-02-21T06:39:59;9.07;;;3.30;;
61911;SDS011;49973;52.084;5.412;2024-02-21T06:42:29;5.90;;;3.83;;
61911;SDS011;49973;52.084;5.412;2024-02-21T06:44:57;11.73;;;3.87;;
61911;SDS011;49973;52.084;5.412;2024-02-21T06:47:26;7.47;;;3.83;;
61911;SDS011;49973;52.084;5.412;2024-02-21T06:49:54;6.27;;;3.93;;
61911;SDS011;49973;52.084;5.412;2024-02-21T06:52:23;8.80;;;3.83;;
61911;SDS011;49973;52.084;5.412;2024-02-21T06:54:52;6.00;;;3.33;;
61911;SDS011;49973;52.084;5.412;2024-02-21T06:57:21;10.17;;;4.27;;
61911;SDS011;49973;52.084;5.412;2024-02-21T06:59:51;5.43;;;3.90;;
61911;SDS011;49973;52.084;5.412;2024-02-21T07:02:19;5.97;;;3.07;;
61911;SDS011;49973;52.084;5.412;2024-02-21T07:04:48;7.90;;;3.60;;
61911;SDS011;49973;52.084;5.412;2024-02-21T07:07:17;10.23;;;4.17;;
61911;SDS011;49973;52.084;5.412;2024-02-21T07:09:46;7.07;;;4.43;;
61911;SDS011;49973;52.084;5.412;2024-02-21T07:12:15;5.67;;;3.53;;
61911;SDS011;49973;52.084;5.412;2024-02-21T07:14:44;5.90;;;3.03;;
61911;SDS011;49973;52.084;5.412;2024-02-21T07:17:14;13.77;;;4.30;;
61911;SDS011;49973;52.084;5.412;2024-02-21T07:19:42;5.37;;;3.13;;
61911;SDS011;49973;52.084;5.412;2024-02-21T07:22:11;12.27;;;3.90;;
61911;SDS011;49973;52.084;5.412;2024-02-21T07:24:40;3.40;;;2.83;;
61911;SDS011;49973;52.084;5.412;2024-02-21T07:27:08;8.17;;;4.27;;
61911;SDS011;49973;52.084;5.412;2024-02-21T07:29:37;10.63;;;3.13;;
61911;SDS011;49973;52.084;5.412;2024-02-21T07:32:06;4.33;;;2.60;;
61911;SDS011;49973;52.084;5.412;2024-02-21T07:34:36;8.80;;;3.33;;
61911;SDS011;49973;52.084;5.412;2024-02-21T07:37:05;6.70;;;3.33;;
61911;SDS011;49973;52.084;5.412;2024-02-21T07:39:35;4.70;;;3.20;;
61911;SDS011;49973;52.084;5.412;2024-02-21T07:42:04;7.50;;;3.73;;
61911;SDS011;49973;52.084;5.412;2024-02-21T07:44:33;6.87;;;3.23;;
61911;SDS011;49973;52.084;5.412;2024-02-21T07:47:01;3.80;;;2.30;;
61911;SDS011;49973;52.084;5.412;2024-02-21T07:49:30;7.97;;;3.27;;
61911;SDS011;49973;52.084;5.412;2024-02-21T07:52:01;5.17;;;3.03;;
61911;SDS011;49973;52.084;5.412;2024-02-21T07:54:31;9.17;;;3.20;;
61911;SDS011;49973;52.084;5.412;2024-02-21T07:56:59;3.87;;;2.60;;
61911;SDS011;49973;52.084;5.412;2024-02-21T07:59:29;5.50;;;3.03;;
61911;SDS011;49973;52.084;5.412;2024-02-21T08:01:58;7.30;;;2.67;;
61911;SDS011;49973;52.084;5.412;2024-02-21T08:04:26;6.80;;;2.97;;
61911;SDS011;49973;52.084;5.412;2024-02-21T08:06:55;4.97;;;2.37;;
61911;SDS011;49973;52.084;5.412;2024-02-21T08:09:27;5.77;;;2.53;;
61911;SDS011;49973;52.084;5.412;2024-02-21T08:11:56;5.37;;;2.87;;
61911;SDS011;49973;52.084;5.412;2024-02-21T08:14:24;4.93;;;2.80;;
61911;SDS011;49973;52.084;5.412;2024-02-21T08:16:53;4.63;;;3.27;;
61911;SDS011;49973;52.084;5.412;2024-02-21T08:19:22;9.67;;;3.43;;
61911;SDS011;49973;52.084;5.412;2024-02-21T08:21:51;6.43;;;3.23;;
61911;SDS011;49973;52.084;5.412;2024-02-21T08:24:20;4.70;;;3.40;;
61911;SDS011;49973;52.084;5.412;2024-02-21T08:26:51;10.40;;;4.07;;
61911;SDS011;49973;52.084;5.412;2024-02-21T08:29:20;5.87;;;3.20;;
61911;SDS011;49973;52.084;5.412;2024-02-21T08:31:49;6.30;;;4.17;;
61911;SDS011;49973;52.084;5.412;2024-02-21T08:34:17;6.40;;;3.77;;
61911;SDS011;49973;52.084;5.412;2024-02-21T08:36:46;5.33;;;3.47;;
61911;SDS011;49973;52.084;5.412;2024-02-21T08:39:14;9.47;;;3.10;;
61911;SDS011;49973;52.084;5.412;2024-02-21T08:41:43;5.73;;;3.10;;
61911;SDS011;49973;52.084;5.412;2024-02-21T08:44:24;6.73;;;3.37;;
61911;SDS011;49973;52.084;5.412;2024-02-21T08:46:54;8.60;;;3.67;;
61911;SDS011;49973;52.084;5.412;2024-02-21T08:49:24;6.87;;;3.23;;
61911;SDS011;49973;52.084;5.412;2024-02-21T08:52:00;4.70;;;3.17;;
61911;SDS011;49973;52.084;5.412;2024-02-21T08:54:30;10.50;;;4.47;;
61911;SDS011;49973;52.084;5.412;2024-02-21T08:56:59;4.83;;;3.07;;
61911;SDS011;49973;52.084;5.412;2024-02-21T08:59:29;5.77;;;3.40;;
61911;SDS011;49973;52.084;5.412;2024-02-21T09:01:58;4.30;;;2.80;;
61911;SDS011;49973;52.084;5.412;2024-02-21T09:04:26;5.10;;;2.77;;
61911;SDS011;49973;52.084;5.412;2024-02-21T09:06:55;4.67;;;2.97;;
61911;SDS011;49973;52.084;5.412;2024-02-21T09:09:24;5.73;;;2.73;;
61911;SDS011;49973;52.084;5.412;2024-02-21T09:11:55;6.03;;;3.23;;
61911;SDS011;49973;52.084;5.412;2024-02-21T09:14:24;5.47;;;3.50;;
61911;SDS011;49973;52.084;5.412;2024-02-21T09:16:54;4.10;;;2.70;;
61911;SDS011;49973;52.084;5.412;2024-02-21T09:19:23;5.60;;;2.90;;
61911;SDS011;49973;52.084;5.412;2024-02-21T09:21:52;8.90;;;4.03;;
61911;SDS011;49973;52.084;5.412;2024-02-21T09:24:21;9.80;;;3.20;;
61911;SDS011;49973;52.084;5.412;2024-02-21T09:26:49;5.10;;;2.47;;
61911;SDS011;49973;52.084;5.412;2024-02-21T09:29:18;6.17;;;3.30;;
61911;SDS011;49973;52.084;5.412;2024-02-21T09:31:51;5.67;;;2.33;;
61911;SDS011;49973;52.084;5.412;2024-02-21T09:34:21;4.63;;;2.93;;
61911;SDS011;49973;52.084;5.412;2024-02-21T09:36:50;4.07;;;2.40;;
61911;SDS011;49973;52.084;5.412;2024-02-21T09:39:20;7.20;;;3.53;;
61911;SDS011;49973;52.084;5.412;2024-02-21T09:41:50;4.07;;;1.90;;
61911;SDS011;49973;52.084;5.412;2024-02-21T09:44:27;6.00;;;2.47;;
61911;SDS011;49973;52.084;5.412;2024-02-21T09:47:05;3.47;;;2.77;;
61911;SDS011;49973;52.084;5.412;2024-02-21T09:49:40;2.73;;;1.90;;
61911;SDS011;49973;52.084;5.412;2024-02-21T09:52:09;4.27;;;2.40;;
61911;SDS011;49973;52.084;5.412;2024-02-21T09:54:41;3.23;;;1.87;;
61911;SDS011;49973;52.084;5.412;2024-02-21T09:57:11;11.70;;;2.80;;
61911;SDS011;49973;52.084;5.412;2024-02-21T09:59:41;8.60;;;2.63;;
61911;SDS011;49973;52.084;5.412;2024-02-21T10:02:10;3.03;;;1.80;;
61911;SDS011;49973;52.084;5.412;2024-02-21T10:04:41;3.67;;;2.20;;
61911;SDS011;49973;52.084;5.412;2024-02-21T10:07:10;5.37;;;2.40;;
61911;SDS011;49973;52.084;5.412;2024-02-21T10:09:39;4.30;;;2.30;;
61911;SDS011;49973;52.084;5.412;2024-02-21T10:12:09;3.27;;;2.33;;
61911;SDS011;49973;52.084;5.412;2024-02-21T10:14:40;5.03;;;2.00;;
61911;SDS011;49973;52.084;5.412;2024-02-21T10:17:14;3.40;;;2.20;;
61911;SDS011;49973;52.084;5.412;2024-02-21T10:19:47;4.43;;;1.97;;
61911;SDS011;49973;52.084;5.412;2024-02-21T10:22:17;3.77;;;1.70;;
61911;SDS011;49973;52.084;5.412;2024-02-21T10:24:47;3.07;;;1.93;;
61911;SDS011;49973;52.084;5.412;2024-02-21T10:27:16;3.47;;;1.90;;
61911;SDS011;49973;52.084;5.412;2024-02-21T10:29:48;4.27;;;1.77;;
61911;SDS011;49973;52.084;5.412;2024-02-21T10:32:18;3.13;;;2.10;;
61911;SDS011;49973;52.084;5.412;2024-02-21T10:34:48;4.93;;;2.17;;
61911;SDS011;49973;52.084;5.412;2024-02-21T10:37:18;3.07;;;1.80;;
61911;SDS011;49973;52.084;5.412;2024-02-21T10:39:49;2.17;;;1.67;;
61911;SDS011;49973;52.084;5.412;2024-02-21T10:42:18;4.07;;;2.13;;
61911;SDS011;49973;52.084;5.412;2024-02-21T10:44:50;3.20;;;1.73;;
61911;SDS011;49973;52.084;5.412;2024-02-21T10:47:19;3.73;;;1.63;;
61911;SDS011;49973;52.084;5.412;2024-02-21T10:49:55;4.13;;;1.67;;
61911;SDS011;49973;52.084;5.412;2024-02-21T10:52:32;2.43;;;1.77;;
61911;SDS011;49973;52.084;5.412;2024-02-21T10:55:10;2.60;;;1.70;;
61911;SDS011;49973;52.084;5.412;2024-02-21T10:57:47;4.10;;;2.90;;
61911;SDS011;49973;52.084;5.412;2024-02-21T11:00:17;2.93;;;2.03;;
61911;SDS011;49973;52.084;5.412;2024-02-21T11:02:46;3.37;;;1.90;;
61911;SDS011;49973;52.084;5.412;2024-02-21T11:05:17;6.07;;;2.30;;
61911;SDS011;49973;52.084;5.412;2024-02-21T11:07:46;3.20;;;2.27;;
61911;SDS011;49973;52.084;5.412;2024-02-21T11:10:22;6.83;;;2.17;;
61911;SDS011;49973;52.084;5.412;2024-02-21T11:12:52;2.37;;;2.17;;
61911;SDS011;49973;52.084;5.412;2024-02-21T11:15:24;3.30;;;2.10;;
61911;SDS011;49973;52.084;5.412;2024-02-21T11:17:54;4.93;;;2.13;;
61911;SDS011;49973;52.084;5.412;2024-02-21T11:20:35;6.43;;;2.53;;
61911;SDS011;49973;52.084;5.412;2024-02-21T11:23:05;5.13;;;2.23;;
61911;SDS011;49973;52.084;5.412;2024-02-21T11:25:34;4.07;;;2.53;;
61911;SDS011;49973;52.084;5.412;2024-02-21T11:28:03;4.53;;;2.30;;
61911;SDS011;49973;52.084;5.412;2024-02-21T11:30:35;2.90;;;2.20;;
61911;SDS011;49973;52.084;5.412;2024-02-21T11:33:05;4.00;;;2.60;;
61911;SDS011;49973;52.084;5.412;2024-02-21T11:35:36;3.50;;;2.00;;
61911;SDS011;49973;52.084;5.412;2024-02-21T11:38:08;4.37;;;1.97;;
61911;SDS011;49973;52.084;5.412;2024-02-21T11:40:41;4.93;;;2.70;;
61911;SDS011;49973;52.084;5.412;2024-02-21T11:43:12;3.73;;;2.33;;
61911;SDS011;49973;52.084;5.412;2024-02-21T11:45:41;4.00;;;2.67;;
61911;SDS011;49973;52.084;5.412;2024-02-21T11:48:09;6.00;;;2.60;;
61911;SDS011;49973;52.084;5.412;2024-02-21T11:50:39;3.93;;;2.33;;
61911;SDS011;49973;52.084;5.412;2024-02-21T11:53:08;4.40;;;2.57;;
61911;SDS011;49973;52.084;5.412;2024-02-21T11:55:37;3.90;;;2.60;;
61911;SDS011;49973;52.084;5.412;2024-02-21T11:58:06;8.57;;;2.73;;
61911;SDS011;49973;52.084;5.412;2024-02-21T12:00:35;4.47;;;2.60;;
61911;SDS011;49973;52.084;5.412;2024-02-21T12:03:03;7.93;;;2.87;;
61911;SDS011;49973;52.084;5.412;2024-02-21T12:05:32;3.40;;;2.07;;
61911;SDS011;49973;52.084;5.412;2024-02-21T12:08:03;4.37;;;2.70;;
61911;SDS011;49973;52.084;5.412;2024-02-21T12:10:32;3.97;;;2.77;;
61911;SDS011;49973;52.084;5.412;2024-02-21T12:13:05;2.63;;;2.23;;
61911;SDS011;49973;52.084;5.412;2024-02-21T12:15:35;4.57;;;1.80;;
61911;SDS011;49973;52.084;5.412;2024-02-21T12:18:04;2.87;;;1.73;;
61911;SDS011;49973;52.084;5.412;2024-02-21T12:20:33;2.73;;;2.40;;
61911;SDS011;49973;52.084;5.412;2024-02-21T12:23:08;2.67;;;1.83;;
61911;SDS011;49973;52.084;5.412;2024-02-21T12:25:38;3.67;;;2.03;;
61911;SDS011;49973;52.084;5.412;2024-02-21T12:28:07;3.33;;;2.27;;
61911;SDS011;49973;52.084;5.412;2024-02-21T12:30:36;5.20;;;2.43;;
61911;SDS011;49973;52.084;5.412;2024-02-21T12:33:06;6.57;;;2.30;;
61911;SDS011;49973;52.084;5.412;2024-02-21T12:35:35;5.77;;;2.97;;
61911;SDS011;49973;52.084;5.412;2024-02-21T12:38:05;6.93;;;2.60;;
61911;SDS011;49973;52.084;5.412;2024-02-21T12:40:34;7.50;;;2.57;;
61911;SDS011;49973;52.084;5.412;2024-02-21T12:43:03;5.37;;;2.63;;
61911;SDS011;49973;52.084;5.412;2024-02-21T12:45:31;5.87;;;2.27;;
61911;SDS011;49973;52.084;5.412;2024-02-21T12:48:04;3.13;;;2.03;;
61911;SDS011;49973;52.084;5.412;2024-02-21T12:50:33;9.20;;;2.47;;
61911;SDS011;49973;52.084;5.412;2024-02-21T12:53:01;6.57;;;2.00;;
61911;SDS011;49973;52.084;5.412;2024-02-21T12:55:40;6.23;;;2.17;;
61911;SDS011;49973;52.084;5.412;2024-02-21T12:58:09;3.30;;;2.00;;
61911;SDS011;49973;52.084;5.412;2024-02-21T13:00:38;2.83;;;2.03;;
61911;SDS011;49973;52.084;5.412;2024-02-21T13:03:06;3.33;;;1.87;;
61911;SDS011;49973;52.084;5.412;2024-02-21T13:05:36;2.97;;;1.83;;
61911;SDS011;49973;52.084;5.412;2024-02-21T13:08:05;5.70;;;2.27;;
61911;SDS011;49973;52.084;5.412;2024-02-21T13:10:34;5.33;;;2.57;;
61911;SDS011;49973;52.084;5.412;2024-02-21T13:13:05;4.13;;;1.63;;
61911;SDS011;49973;52.084;5.412;2024-02-21T13:15:33;3.30;;;2.20;;
61911;SDS011;49973;52.084;5.412;2024-02-21T13:18:04;2.10;;;1.70;;
61911;SDS011;49973;52.084;5.412;2024-02-21T13:20:33;2.77;;;1.47;;
61911;SDS011;49973;52.084;5.412;2024-02-21T13:23:01;4.47;;;2.50;;
61911;SDS011;49973;52.084;5.412;2024-02-21T13:25:30;2.57;;;1.30;;
61911;SDS011;49973;52.084;5.412;2024-02-21T13:27:59;2.43;;;2.10;;
61911;SDS011;49973;52.084;5.412;2024-02-21T13:30:30;1.23;;;1.13;;
61911;SDS011;49973;52.084;5.412;2024-02-21T13:32:58;2.63;;;1.90;;
61911;SDS011;49973;52.084;5.412;2024-02-21T13:35:27;2.17;;;1.43;;
61911;SDS011;49973;52.084;5.412;2024-02-21T13:37:56;2.77;;;1.43;;
61911;SDS011;49973;52.084;5.412;2024-02-21T13:40:24;2.47;;;1.60;;
61911;SDS011;49973;52.084;5.412;2024-02-21T13:42:53;8.17;;;1.23;;
61911;SDS011;49973;52.084;5.412;2024-02-21T13:45:22;2.33;;;1.53;;
61911;SDS011;49973;52.084;5.412;2024-02-21T13:47:52;1.37;;;1.20;;
61911;SDS011;49973;52.084;5.412;2024-02-21T13:50:21;5.87;;;1.60;;
61911;SDS011;49973;52.084;5.412;2024-02-21T13:52:54;1.50;;;1.10;;
61911;SDS011;49973;52.084;5.412;2024-02-21T13:55:23;3.20;;;1.90;;
61911;SDS011;49973;52.084;5.412;2024-02-21T13:57:53;5.07;;;1.73;;
61911;SDS011;49973;52.084;5.412;2024-02-21T14:00:21;2.43;;;1.60;;
61911;SDS011;49973;52.084;5.412;2024-02-21T14:02:51;2.50;;;1.40;;
61911;SDS011;49973;52.084;5.412;2024-02-21T14:05:21;1.43;;;1.30;;
61911;SDS011;49973;52.084;5.412;2024-02-21T14:07:50;4.87;;;1.50;;
61911;SDS011;49973;52.084;5.412;2024-02-21T14:10:21;7.33;;;2.17;;
61911;SDS011;49973;52.084;5.412;2024-02-21T14:12:50;3.07;;;1.40;;
61911;SDS011;49973;52.084;5.412;2024-02-21T14:15:19;1.97;;;1.27;;
61911;SDS011;49973;52.084;5.412;2024-02-21T14:17:47;2.13;;;1.27;;
61911;SDS011;49973;52.084;5.412;2024-02-21T14:20:17;1.27;;;1.17;;
61911;SDS011;49973;52.084;5.412;2024-02-21T14:22:46;4.10;;;1.57;;
61911;SDS011;49973;52.084;5.412;2024-02-21T14:25:15;1.33;;;1.20;;
61911;SDS011;49973;52.084;5.412;2024-02-21T14:27:44;4.60;;;1.30;;
61911;SDS011;49973;52.084;5.412;2024-02-21T14:30:12;6.00;;;1.33;;
61911;SDS011;49973;52.084;5.412;2024-02-21T14:32:43;1.37;;;1.00;;
61911;SDS011;49973;52.084;5.412;2024-02-21T14:35:12;4.47;;;1.27;;
61911;SDS011;49973;52.084;5.412;2024-02-21T14:37:44;3.57;;;1.73;;
61911;SDS011;49973;52.084;5.412;2024-02-21T14:40:15;2.53;;;2.20;;
61911;SDS011;49973;52.084;5.412;2024-02-21T14:42:46;1.80;;;1.00;;
61911;SDS011;49973;52.084;5.412;2024-02-21T14:45:15;2.43;;;1.53;;
61911;SDS011;49973;52.084;5.412;2024-02-21T14:47:43;2.37;;;1.30;;
61911;SDS011;49973;52.084;5.412;2024-02-21T14:50:12;3.97;;;1.53;;
61911;SDS011;49973;52.084;5.412;2024-02-21T14:52:41;2.27;;;1.30;;
61911;SDS011;49973;52.084;5.412;2024-02-21T14:55:14;1.60;;;1.23;;
61911;SDS011;49973;52.084;5.412;2024-02-21T14:57:43;3.33;;;1.17;;
61911;SDS011;49973;52.084;5.412;2024-02-21T15:00:12;6.50;;;1.50;;
61911;SDS011;49973;52.084;5.412;2024-02-21T15:02:42;2.43;;;1.00;;